sensor_id;sensor_type;location;lat;lon;timestamp;P1;durP1;ratioP1;P2;durP2;ratioP2
19285;SDS011;9776;50.798;6.430;2023-10-08T00:00:23;6.53;;;2.45;;
19285;SDS011;9776;50.798;6.430;2023-10-08T00:03:16;3.85;;;2.13;;
19285;SDS011;9776;50.798;6.430;2023-10-08T00:05:44;4.82;;;2.30;;
19285;SDS011;9776;50.798;6.430;2023-10-08T00:08:12;4.35;;;2.15;;
19285;SDS011;9776;50.798;6.430;2023-10-08T00:10:42;9.57;;;2.67;;
19285;SDS011;9776;50.798;6.430;2023-10-08T00:13:10;5.03;;;2.08;;
19285;SDS011;9776;50.798;6.430;2023-10-08T00:15:39;3.65;;;2.38;;
19285;SDS011;9776;50.798;6.430;2023-10-08T00:18:17;5.25;;;2.42;;
19285;SDS011;9776;50.798;6.430;2023-10-08T00:20:44;5.68;;;2.28;;
19285;SDS011;9776;50.798;6.430;2023-10-08T00:23:13;5.43;;;2.25;;
19285;SDS011;9776;50.798;6.430;2023-10-08T00:25:43;4.55;;;2.42;;
19285;SDS011;9776;50.798;6.430;2023-10-08T00:28:12;6.13;;;2.30;;
19285;SDS011;9776;50.798;6.430;2023-10-08T00:30:44;4.78;;;2.40;;
19285;SDS011;9776;50.798;6.430;2023-10-08T00:33:11;3.15;;;1.98;;
19285;SDS011;9776;50.798;6.430;2023-10-08T00:35:38;4.93;;;2.40;;
19285;SDS011;9776;50.798;6.430;2023-10-08T00:38:05;5.18;;;2.35;;
19285;SDS011;9776;50.798;6.430;2023-10-08T00:40:36;4.95;;;2.60;;
19285;SDS011;9776;50.798;6.430;2023-10-08T00:43:05;5.68;;;2.30;;
19285;SDS011;9776;50.798;6.430;2023-10-08T00:45:35;5.13;;;2.28;;
19285;SDS011;9776;50.798;6.430;2023-10-08T00:48:09;7.97;;;2.50;;
19285;SDS011;9776;50.798;6.430;2023-10-08T00:50:41;4.47;;;2.20;;
19285;SDS011;9776;50.798;6.430;2023-10-08T00:53:09;6.13;;;2.10;;
19285;SDS011;9776;50.798;6.430;2023-10-08T00:55:43;3.75;;;2.00;;
19285;SDS011;9776;50.798;6.430;2023-10-08T00:58:18;3.97;;;2.08;;
19285;SDS011;9776;50.798;6.430;2023-10-08T01:00:50;6.13;;;2.40;;
19285;SDS011;9776;50.798;6.430;2023-10-08T01:03:25;5.40;;;2.30;;
19285;SDS011;9776;50.798;6.430;2023-10-08T01:05:53;3.35;;;1.95;;
19285;SDS011;9776;50.798;6.430;2023-10-08T01:08:20;6.50;;;2.47;;
19285;SDS011;9776;50.798;6.430;2023-10-08T01:11:15;4.45;;;2.45;;
19285;SDS011;9776;50.798;6.430;2023-10-08T01:13:43;3.80;;;1.95;;
19285;SDS011;9776;50.798;6.430;2023-10-08T01:16:11;5.25;;;2.50;;
19285;SDS011;9776;50.798;6.430;2023-10-08T01:18:40;3.83;;;2.22;;
19285;SDS011;9776;50.798;6.430;2023-10-08T01:21:16;4.63;;;2.58;;
19285;SDS011;9776;50.798;6.430;2023-10-08T01:24:00;7.60;;;2.50;;
19285;SDS011;9776;50.798;6.430;2023-10-08T01:26:30;6.80;;;2.40;;
19285;SDS011;9776;50.798;6.430;2023-10-08T01:28:58;6.35;;;2.50;;
19285;SDS011;9776;50.798;6.430;2023-10-08T01:31:29;4.95;;;2.92;;
19285;SDS011;9776;50.798;6.430;2023-10-08T01:33:57;6.72;;;2.42;;
19285;SDS011;9776;50.798;6.430;2023-10-08T01:36:24;4.50;;;2.45;;
19285;SDS011;9776;50.798;6.430;2023-10-08T01:38:51;4.32;;;2.20;;
19285;SDS011;9776;50.798;6.430;2023-10-08T01:41:21;6.65;;;2.42;;
19285;SDS011;9776;50.798;6.430;2023-10-08T01:43:55;7.95;;;2.80;;
19285;SDS011;9776;50.798;6.430;2023-10-08T01:46:22;6.10;;;2.13;;
19285;SDS011;9776;50.798;6.430;2023-10-08T01:48:49;3.50;;;2.00;;
19285;SDS011;9776;50.798;6.430;2023-10-08T01:51:21;6.93;;;2.35;;
19285;SDS011;9776;50.798;6.430;2023-10-08T01:54:02;5.68;;;2.65;;
19285;SDS011;9776;50.798;6.430;2023-10-08T01:56:36;7.05;;;2.75;;
19285;SDS011;9776;50.798;6.430;2023-10-08T01:59:03;5.50;;;2.35;;
19285;SDS011;9776;50.798;6.430;2023-10-08T02:01:31;4.28;;;2.13;;
19285;SDS011;9776;50.798;6.430;2023-10-08T02:03:57;5.90;;;2.10;;
19285;SDS011;9776;50.798;6.430;2023-10-08T02:06:24;4.78;;;2.30;;
19285;SDS011;9776;50.798;6.430;2023-10-08T02:08:51;6.53;;;2.67;;
19285;SDS011;9776;50.798;6.430;2023-10-08T02:11:18;5.68;;;2.65;;
19285;SDS011;9776;50.798;6.430;2023-10-08T02:13:46;5.82;;;2.35;;
19285;SDS011;9776;50.798;6.430;2023-10-08T02:16:17;10.65;;;2.67;;
19285;SDS011;9776;50.798;6.430;2023-10-08T02:18:44;6.97;;;2.53;;
19285;SDS011;9776;50.798;6.430;2023-10-08T02:21:11;5.47;;;2.72;;
19285;SDS011;9776;50.798;6.430;2023-10-08T02:23:38;4.82;;;2.30;;
19285;SDS011;9776;50.798;6.430;2023-10-08T02:26:04;4.38;;;2.15;;
19285;SDS011;9776;50.798;6.430;2023-10-08T02:28:31;5.68;;;1.85;;
19285;SDS011;9776;50.798;6.430;2023-10-08T02:31:00;4.40;;;2.25;;
19285;SDS011;9776;50.798;6.430;2023-10-08T02:33:28;5.28;;;2.30;;
19285;SDS011;9776;50.798;6.430;2023-10-08T02:35:55;5.28;;;2.53;;
19285;SDS011;9776;50.798;6.430;2023-10-08T02:38:22;6.20;;;2.60;;
19285;SDS011;9776;50.798;6.430;2023-10-08T02:40:49;4.13;;;2.05;;
19285;SDS011;9776;50.798;6.430;2023-10-08T02:43:15;4.95;;;2.38;;
19285;SDS011;9776;50.798;6.430;2023-10-08T02:45:43;6.30;;;2.47;;
19285;SDS011;9776;50.798;6.430;2023-10-08T02:48:14;5.60;;;2.53;;
19285;SDS011;9776;50.798;6.430;2023-10-08T02:50:41;6.28;;;2.40;;
19285;SDS011;9776;50.798;6.430;2023-10-08T02:53:10;6.00;;;2.60;;
19285;SDS011;9776;50.798;6.430;2023-10-08T02:55:37;5.18;;;2.42;;
19285;SDS011;9776;50.798;6.430;2023-10-08T02:58:09;6.85;;;2.40;;
19285;SDS011;9776;50.798;6.430;2023-10-08T03:00:39;6.53;;;2.60;;
19285;SDS011;9776;50.798;6.430;2023-10-08T03:03:06;5.85;;;2.40;;
19285;SDS011;9776;50.798;6.430;2023-10-08T03:05:41;5.63;;;2.38;;
19285;SDS011;9776;50.798;6.430;2023-10-08T03:08:11;7.20;;;2.72;;
19285;SDS011;9776;50.798;6.430;2023-10-08T03:10:38;7.00;;;2.65;;
19285;SDS011;9776;50.798;6.430;2023-10-08T03:13:06;6.57;;;3.05;;
19285;SDS011;9776;50.798;6.430;2023-10-08T03:15:35;6.88;;;2.75;;
19285;SDS011;9776;50.798;6.430;2023-10-08T03:18:05;4.32;;;2.45;;
19285;SDS011;9776;50.798;6.430;2023-10-08T03:20:39;7.20;;;2.88;;
19285;SDS011;9776;50.798;6.430;2023-10-08T03:23:11;3.75;;;2.10;;
19285;SDS011;9776;50.798;6.430;2023-10-08T03:25:50;5.07;;;2.40;;
19285;SDS011;9776;50.798;6.430;2023-10-08T03:28:22;6.57;;;2.67;;
19285;SDS011;9776;50.798;6.430;2023-10-08T03:30:50;7.05;;;2.92;;
19285;SDS011;9776;50.798;6.430;2023-10-08T03:33:21;7.57;;;2.53;;
19285;SDS011;9776;50.798;6.430;2023-10-08T03:35:51;6.97;;;2.60;;
19285;SDS011;9776;50.798;6.430;2023-10-08T03:38:21;6.40;;;2.55;;
19285;SDS011;9776;50.798;6.430;2023-10-08T03:40:53;6.30;;;2.80;;
19285;SDS011;9776;50.798;6.430;2023-10-08T03:43:29;6.20;;;2.53;;
19285;SDS011;9776;50.798;6.430;2023-10-08T03:46:08;6.90;;;3.08;;
19285;SDS011;9776;50.798;6.430;2023-10-08T03:48:40;5.57;;;2.88;;
19285;SDS011;9776;50.798;6.430;2023-10-08T03:51:09;4.35;;;2.30;;
19285;SDS011;9776;50.798;6.430;2023-10-08T03:53:38;6.13;;;2.55;;
19285;SDS011;9776;50.798;6.430;2023-10-08T03:56:23;6.65;;;2.80;;
19285;SDS011;9776;50.798;6.430;2023-10-08T03:58:50;8.15;;;2.67;;
19285;SDS011;9776;50.798;6.430;2023-10-08T04:01:19;5.05;;;3.00;;
19285;SDS011;9776;50.798;6.430;2023-10-08T04:03:46;5.80;;;2.70;;
19285;SDS011;9776;50.798;6.430;2023-10-08T04:06:24;6.07;;;2.40;;
19285;SDS011;9776;50.798;6.430;2023-10-08T04:08:56;5.57;;;2.40;;
19285;SDS011;9776;50.798;6.430;2023-10-08T04:11:37;5.88;;;2.50;;
19285;SDS011;9776;50.798;6.430;2023-10-08T04:14:16;5.72;;;2.20;;
19285;SDS011;9776;50.798;6.430;2023-10-08T04:16:44;6.03;;;2.50;;
19285;SDS011;9776;50.798;6.430;2023-10-08T04:19:11;8.32;;;2.97;;
19285;SDS011;9776;50.798;6.430;2023-10-08T04:21:43;6.93;;;2.60;;
19285;SDS011;9776;50.798;6.430;2023-10-08T04:24:11;5.38;;;2.45;;
19285;SDS011;9776;50.798;6.430;2023-10-08T04:26:40;5.65;;;2.67;;
19285;SDS011;9776;50.798;6.430;2023-10-08T04:29:07;6.80;;;2.45;;
19285;SDS011;9776;50.798;6.430;2023-10-08T04:31:34;6.03;;;2.67;;
19285;SDS011;9776;50.798;6.430;2023-10-08T04:34:03;4.85;;;2.67;;
19285;SDS011;9776;50.798;6.430;2023-10-08T04:36:35;6.95;;;2.60;;
19285;SDS011;9776;50.798;6.430;2023-10-08T04:39:03;5.13;;;2.42;;
19285;SDS011;9776;50.798;6.430;2023-10-08T04:41:39;4.35;;;2.40;;
19285;SDS011;9776;50.798;6.430;2023-10-08T04:44:07;6.43;;;2.28;;
19285;SDS011;9776;50.798;6.430;2023-10-08T04:46:39;5.13;;;2.58;;
19285;SDS011;9776;50.798;6.430;2023-10-08T04:49:13;5.75;;;2.50;;
19285;SDS011;9776;50.798;6.430;2023-10-08T04:51:51;6.53;;;2.50;;
19285;SDS011;9776;50.798;6.430;2023-10-08T04:54:22;6.97;;;2.90;;
19285;SDS011;9776;50.798;6.430;2023-10-08T04:56:50;5.38;;;2.78;;
19285;SDS011;9776;50.798;6.430;2023-10-08T04:59:18;5.90;;;3.10;;
19285;SDS011;9776;50.798;6.430;2023-10-08T05:01:46;5.72;;;2.63;;
19285;SDS011;9776;50.798;6.430;2023-10-08T05:04:14;5.70;;;2.30;;
19285;SDS011;9776;50.798;6.430;2023-10-08T05:06:52;6.82;;;2.30;;
19285;SDS011;9776;50.798;6.430;2023-10-08T05:09:42;6.45;;;2.70;;
19285;SDS011;9776;50.798;6.430;2023-10-08T05:12:18;7.80;;;2.78;;
19285;SDS011;9776;50.798;6.430;2023-10-08T05:15:03;6.15;;;2.80;;
19285;SDS011;9776;50.798;6.430;2023-10-08T05:17:58;7.95;;;2.90;;
19285;SDS011;9776;50.798;6.430;2023-10-08T05:20:38;6.28;;;2.88;;
19285;SDS011;9776;50.798;6.430;2023-10-08T05:23:25;5.28;;;2.70;;
19285;SDS011;9776;50.798;6.430;2023-10-08T05:26:34;9.43;;;2.65;;
19285;SDS011;9776;50.798;6.430;2023-10-08T05:29:08;7.50;;;2.83;;
19285;SDS011;9776;50.798;6.430;2023-10-08T05:31:53;4.72;;;2.40;;
19285;SDS011;9776;50.798;6.430;2023-10-08T05:34:40;4.68;;;2.53;;
19285;SDS011;9776;50.798;6.430;2023-10-08T05:37:16;5.30;;;2.50;;
19285;SDS011;9776;50.798;6.430;2023-10-08T05:40:10;7.43;;;2.83;;
19285;SDS011;9776;50.798;6.430;2023-10-08T05:42:46;5.53;;;2.58;;
19285;SDS011;9776;50.798;6.430;2023-10-08T05:45:14;6.75;;;2.80;;
19285;SDS011;9776;50.798;6.430;2023-10-08T05:47:54;4.95;;;2.58;;
19285;SDS011;9776;50.798;6.430;2023-10-08T05:50:38;5.55;;;2.60;;
19285;SDS011;9776;50.798;6.430;2023-10-08T05:53:07;6.35;;;2.80;;
19285;SDS011;9776;50.798;6.430;2023-10-08T05:55:46;5.15;;;2.78;;
19285;SDS011;9776;50.798;6.430;2023-10-08T05:58:26;5.43;;;2.60;;
19285;SDS011;9776;50.798;6.430;2023-10-08T06:01:00;7.65;;;2.97;;
19285;SDS011;9776;50.798;6.430;2023-10-08T06:03:33;5.05;;;2.42;;
19285;SDS011;9776;50.798;6.430;2023-10-08T06:06:02;5.80;;;2.85;;
19285;SDS011;9776;50.798;6.430;2023-10-08T06:08:51;5.95;;;2.65;;
19285;SDS011;9776;50.798;6.430;2023-10-08T06:11:18;5.03;;;2.60;;
19285;SDS011;9776;50.798;6.430;2023-10-08T06:14:02;6.00;;;2.80;;
19285;SDS011;9776;50.798;6.430;2023-10-08T06:16:38;6.85;;;2.78;;
19285;SDS011;9776;50.798;6.430;2023-10-08T06:19:08;5.35;;;2.72;;
19285;SDS011;9776;50.798;6.430;2023-10-08T06:21:35;5.60;;;2.53;;
19285;SDS011;9776;50.798;6.430;2023-10-08T06:24:03;6.22;;;3.50;;
19285;SDS011;9776;50.798;6.430;2023-10-08T06:26:35;4.80;;;2.60;;
19285;SDS011;9776;50.798;6.430;2023-10-08T06:29:07;5.22;;;2.55;;
19285;SDS011;9776;50.798;6.430;2023-10-08T06:31:44;5.50;;;2.72;;
19285;SDS011;9776;50.798;6.430;2023-10-08T06:34:16;6.97;;;2.67;;
19285;SDS011;9776;50.798;6.430;2023-10-08T06:36:46;5.40;;;2.90;;
19285;SDS011;9776;50.798;6.430;2023-10-08T06:39:18;7.60;;;3.33;;
19285;SDS011;9776;50.798;6.430;2023-10-08T06:41:51;7.45;;;3.03;;
19285;SDS011;9776;50.798;6.430;2023-10-08T06:44:21;6.43;;;2.72;;
19285;SDS011;9776;50.798;6.430;2023-10-08T06:46:49;6.60;;;2.80;;
19285;SDS011;9776;50.798;6.430;2023-10-08T06:49:17;5.88;;;2.72;;
19285;SDS011;9776;50.798;6.430;2023-10-08T06:51:45;5.18;;;2.67;;
19285;SDS011;9776;50.798;6.430;2023-10-08T06:54:13;6.68;;;2.60;;
19285;SDS011;9776;50.798;6.430;2023-10-08T06:56:42;5.88;;;2.95;;
19285;SDS011;9776;50.798;6.430;2023-10-08T06:59:13;8.43;;;2.75;;
19285;SDS011;9776;50.798;6.430;2023-10-08T07:01:40;7.65;;;3.20;;
19285;SDS011;9776;50.798;6.430;2023-10-08T07:04:11;7.35;;;3.50;;
19285;SDS011;9776;50.798;6.430;2023-10-08T07:06:38;7.32;;;3.45;;
19285;SDS011;9776;50.798;6.430;2023-10-08T07:09:05;6.68;;;4.15;;
19285;SDS011;9776;50.798;6.430;2023-10-08T07:11:39;6.63;;;3.58;;
19285;SDS011;9776;50.798;6.430;2023-10-08T07:14:09;9.52;;;3.65;;
19285;SDS011;9776;50.798;6.430;2023-10-08T07:16:40;5.50;;;2.88;;
19285;SDS011;9776;50.798;6.430;2023-10-08T07:19:07;6.53;;;3.20;;
19285;SDS011;9776;50.798;6.430;2023-10-08T07:21:44;6.28;;;3.00;;
19285;SDS011;9776;50.798;6.430;2023-10-08T07:24:11;8.38;;;2.95;;
19285;SDS011;9776;50.798;6.430;2023-10-08T07:26:42;8.00;;;2.83;;
19285;SDS011;9776;50.798;6.430;2023-10-08T07:29:12;7.72;;;2.72;;
19285;SDS011;9776;50.798;6.430;2023-10-08T07:31:43;6.60;;;2.95;;
19285;SDS011;9776;50.798;6.430;2023-10-08T07:34:14;5.82;;;2.78;;
19285;SDS011;9776;50.798;6.430;2023-10-08T07:36:50;6.45;;;2.90;;
19285;SDS011;9776;50.798;6.430;2023-10-08T07:39:18;5.80;;;2.42;;
19285;SDS011;9776;50.798;6.430;2023-10-08T07:41:59;6.25;;;3.00;;
19285;SDS011;9776;50.798;6.430;2023-10-08T07:44:27;7.35;;;3.28;;
19285;SDS011;9776;50.798;6.430;2023-10-08T07:46:56;7.00;;;2.95;;
19285;SDS011;9776;50.798;6.430;2023-10-08T07:49:23;5.53;;;2.70;;
19285;SDS011;9776;50.798;6.430;2023-10-08T07:51:51;5.60;;;3.10;;
19285;SDS011;9776;50.798;6.430;2023-10-08T07:54:18;5.95;;;3.10;;
19285;SDS011;9776;50.798;6.430;2023-10-08T07:56:47;10.18;;;2.85;;
19285;SDS011;9776;50.798;6.430;2023-10-08T07:59:16;6.90;;;3.00;;
19285;SDS011;9776;50.798;6.430;2023-10-08T08:01:43;6.03;;;2.92;;
19285;SDS011;9776;50.798;6.430;2023-10-08T08:04:11;8.82;;;3.28;;
19285;SDS011;9776;50.798;6.430;2023-10-08T08:06:46;7.28;;;2.80;;
19285;SDS011;9776;50.798;6.430;2023-10-08T08:09:15;6.45;;;2.53;;
19285;SDS011;9776;50.798;6.430;2023-10-08T08:11:45;7.35;;;2.80;;
19285;SDS011;9776;50.798;6.430;2023-10-08T08:14:12;8.30;;;2.90;;
19285;SDS011;9776;50.798;6.430;2023-10-08T08:16:42;7.45;;;3.10;;
19285;SDS011;9776;50.798;6.430;2023-10-08T08:19:12;5.90;;;2.50;;
19285;SDS011;9776;50.798;6.430;2023-10-08T08:21:40;6.95;;;2.75;;
19285;SDS011;9776;50.798;6.430;2023-10-08T08:24:10;6.35;;;3.17;;
19285;SDS011;9776;50.798;6.430;2023-10-08T08:26:37;6.13;;;3.30;;
19285;SDS011;9776;50.798;6.430;2023-10-08T08:29:09;7.75;;;2.83;;
19285;SDS011;9776;50.798;6.430;2023-10-08T08:31:40;6.25;;;2.63;;
19285;SDS011;9776;50.798;6.430;2023-10-08T08:34:12;7.45;;;3.30;;
19285;SDS011;9776;50.798;6.430;2023-10-08T08:36:44;7.90;;;3.30;;
19285;SDS011;9776;50.798;6.430;2023-10-08T08:39:14;7.63;;;3.20;;
19285;SDS011;9776;50.798;6.430;2023-10-08T08:41:54;7.78;;;3.10;;
19285;SDS011;9776;50.798;6.430;2023-10-08T08:44:25;8.05;;;3.20;;
19285;SDS011;9776;50.798;6.430;2023-10-08T08:46:55;6.85;;;3.08;;
19285;SDS011;9776;50.798;6.430;2023-10-08T08:49:25;6.53;;;2.90;;
19285;SDS011;9776;50.798;6.430;2023-10-08T08:51:53;6.85;;;2.95;;
19285;SDS011;9776;50.798;6.430;2023-10-08T08:54:25;5.95;;;2.85;;
19285;SDS011;9776;50.798;6.430;2023-10-08T08:56:55;5.32;;;2.67;;
19285;SDS011;9776;50.798;6.430;2023-10-08T08:59:22;7.03;;;2.70;;
19285;SDS011;9776;50.798;6.430;2023-10-08T09:01:49;8.05;;;2.90;;
19285;SDS011;9776;50.798;6.430;2023-10-08T09:04:17;5.82;;;2.90;;
19285;SDS011;9776;50.798;6.430;2023-10-08T09:06:56;8.10;;;2.95;;
19285;SDS011;9776;50.798;6.430;2023-10-08T09:09:25;7.53;;;2.80;;
19285;SDS011;9776;50.798;6.430;2023-10-08T09:11:57;7.13;;;2.80;;
19285;SDS011;9776;50.798;6.430;2023-10-08T09:14:25;5.72;;;2.67;;
19285;SDS011;9776;50.798;6.430;2023-10-08T09:16:55;5.47;;;2.80;;
19285;SDS011;9776;50.798;6.430;2023-10-08T09:19:23;6.55;;;2.83;;
19285;SDS011;9776;50.798;6.430;2023-10-08T09:22:03;8.05;;;3.17;;
19285;SDS011;9776;50.798;6.430;2023-10-08T09:24:31;10.65;;;3.22;;
19285;SDS011;9776;50.798;6.430;2023-10-08T09:27:01;8.50;;;3.55;;
19285;SDS011;9776;50.798;6.430;2023-10-08T09:29:28;7.63;;;3.22;;
19285;SDS011;9776;50.798;6.430;2023-10-08T09:31:56;10.82;;;3.22;;
19285;SDS011;9776;50.798;6.430;2023-10-08T09:34:27;12.15;;;3.58;;
19285;SDS011;9776;50.798;6.430;2023-10-08T09:36:55;7.88;;;3.15;;
19285;SDS011;9776;50.798;6.430;2023-10-08T09:39:26;8.93;;;3.40;;
19285;SDS011;9776;50.798;6.430;2023-10-08T09:41:55;7.47;;;3.50;;
19285;SDS011;9776;50.798;6.430;2023-10-08T09:44:23;7.50;;;2.97;;
19285;SDS011;9776;50.798;6.430;2023-10-08T09:46:52;6.40;;;3.03;;
19285;SDS011;9776;50.798;6.430;2023-10-08T09:49:22;7.35;;;3.53;;
19285;SDS011;9776;50.798;6.430;2023-10-08T09:51:58;8.50;;;3.03;;
19285;SDS011;9776;50.798;6.430;2023-10-08T09:54:30;11.98;;;3.20;;
19285;SDS011;9776;50.798;6.430;2023-10-08T09:57:05;7.93;;;3.30;;
19285;SDS011;9776;50.798;6.430;2023-10-08T09:59:32;9.55;;;3.30;;
19285;SDS011;9776;50.798;6.430;2023-10-08T10:02:00;9.63;;;3.70;;
19285;SDS011;9776;50.798;6.430;2023-10-08T10:04:29;9.55;;;3.60;;
19285;SDS011;9776;50.798;6.430;2023-10-08T10:06:57;5.80;;;2.95;;
19285;SDS011;9776;50.798;6.430;2023-10-08T10:09:25;4.97;;;2.90;;
19285;SDS011;9776;50.798;6.430;2023-10-08T10:11:54;6.97;;;3.38;;
19285;SDS011;9776;50.798;6.430;2023-10-08T10:14:22;6.80;;;3.42;;
19285;SDS011;9776;50.798;6.430;2023-10-08T10:17:01;7.22;;;2.85;;
19285;SDS011;9776;50.798;6.430;2023-10-08T10:19:36;7.68;;;3.25;;
19285;SDS011;9776;50.798;6.430;2023-10-08T10:22:02;8.20;;;3.58;;
19285;SDS011;9776;50.798;6.430;2023-10-08T10:24:32;6.15;;;3.30;;
19285;SDS011;9776;50.798;6.430;2023-10-08T10:27:13;9.13;;;3.70;;
19285;SDS011;9776;50.798;6.430;2023-10-08T10:29:41;7.85;;;3.47;;
19285;SDS011;9776;50.798;6.430;2023-10-08T10:32:10;10.25;;;3.53;;
19285;SDS011;9776;50.798;6.430;2023-10-08T10:34:38;8.68;;;3.17;;
19285;SDS011;9776;50.798;6.430;2023-10-08T10:37:05;7.13;;;3.47;;
19285;SDS011;9776;50.798;6.430;2023-10-08T10:39:35;11.38;;;3.53;;
19285;SDS011;9776;50.798;6.430;2023-10-08T10:42:07;9.63;;;3.90;;
19285;SDS011;9776;50.798;6.430;2023-10-08T10:44:47;9.52;;;3.47;;
19285;SDS011;9776;50.798;6.430;2023-10-08T10:47:15;7.68;;;3.70;;
19285;SDS011;9776;50.798;6.430;2023-10-08T10:50:08;9.75;;;4.05;;
19285;SDS011;9776;50.798;6.430;2023-10-08T10:52:55;9.50;;;3.65;;
19285;SDS011;9776;50.798;6.430;2023-10-08T10:55:22;7.47;;;3.55;;
19285;SDS011;9776;50.798;6.430;2023-10-08T10:57:56;9.35;;;3.55;;
19285;SDS011;9776;50.798;6.430;2023-10-08T11:00:30;9.68;;;4.00;;
19285;SDS011;9776;50.798;6.430;2023-10-08T11:03:22;7.68;;;3.72;;
19285;SDS011;9776;50.798;6.430;2023-10-08T11:05:56;7.30;;;3.70;;
19285;SDS011;9776;50.798;6.430;2023-10-08T11:08:30;7.80;;;4.03;;
19285;SDS011;9776;50.798;6.430;2023-10-08T11:11:00;11.07;;;4.43;;
19285;SDS011;9776;50.798;6.430;2023-10-08T11:13:31;9.52;;;3.80;;
19285;SDS011;9776;50.798;6.430;2023-10-08T11:16:06;7.63;;;3.63;;
19285;SDS011;9776;50.798;6.430;2023-10-08T11:18:34;8.05;;;3.40;;
19285;SDS011;9776;50.798;6.430;2023-10-08T11:21:06;11.18;;;3.65;;
19285;SDS011;9776;50.798;6.430;2023-10-08T11:23:47;9.82;;;4.07;;
19285;SDS011;9776;50.798;6.430;2023-10-08T11:26:20;7.22;;;3.85;;
19285;SDS011;9776;50.798;6.430;2023-10-08T11:28:57;10.25;;;3.50;;
19285;SDS011;9776;50.798;6.430;2023-10-08T11:31:27;9.82;;;3.92;;
19285;SDS011;9776;50.798;6.430;2023-10-08T11:33:58;13.18;;;3.53;;
19285;SDS011;9776;50.798;6.430;2023-10-08T11:36:27;6.50;;;3.50;;
19285;SDS011;9776;50.798;6.430;2023-10-08T11:38:55;9.77;;;3.92;;
19285;SDS011;9776;50.798;6.430;2023-10-08T11:41:27;10.85;;;3.78;;
19285;SDS011;9776;50.798;6.430;2023-10-08T11:43:55;7.82;;;4.07;;
19285;SDS011;9776;50.798;6.430;2023-10-08T11:46:23;8.45;;;3.85;;
19285;SDS011;9776;50.798;6.430;2023-10-08T11:48:59;9.73;;;3.95;;
19285;SDS011;9776;50.798;6.430;2023-10-08T11:51:30;11.27;;;3.72;;
19285;SDS011;9776;50.798;6.430;2023-10-08T11:53:57;9.57;;;3.95;;
19285;SDS011;9776;50.798;6.430;2023-10-08T11:56:25;10.10;;;3.70;;
19285;SDS011;9776;50.798;6.430;2023-10-08T11:58:52;9.70;;;3.83;;
19285;SDS011;9776;50.798;6.430;2023-10-08T12:01:21;9.05;;;3.75;;
19285;SDS011;9776;50.798;6.430;2023-10-08T12:03:49;9.15;;;3.60;;
19285;SDS011;9776;50.798;6.430;2023-10-08T12:06:17;11.70;;;4.28;;
19285;SDS011;9776;50.798;6.430;2023-10-08T12:08:44;9.90;;;3.67;;
19285;SDS011;9776;50.798;6.430;2023-10-08T12:11:12;11.90;;;3.72;;
19285;SDS011;9776;50.798;6.430;2023-10-08T12:13:39;6.65;;;3.40;;
19285;SDS011;9776;50.798;6.430;2023-10-08T12:16:10;9.30;;;3.78;;
19285;SDS011;9776;50.798;6.430;2023-10-08T12:18:46;7.15;;;3.20;;
19285;SDS011;9776;50.798;6.430;2023-10-08T12:21:19;5.95;;;3.38;;
19285;SDS011;9776;50.798;6.430;2023-10-08T12:23:46;8.85;;;3.53;;
19285;SDS011;9776;50.798;6.430;2023-10-08T12:26:15;8.45;;;3.40;;
19285;SDS011;9776;50.798;6.430;2023-10-08T12:28:44;10.00;;;3.85;;
19285;SDS011;9776;50.798;6.430;2023-10-08T12:31:11;7.57;;;3.40;;
19285;SDS011;9776;50.798;6.430;2023-10-08T12:33:40;7.22;;;3.47;;
19285;SDS011;9776;50.798;6.430;2023-10-08T12:36:08;10.27;;;3.60;;
19285;SDS011;9776;50.798;6.430;2023-10-08T12:38:42;6.53;;;3.53;;
19285;SDS011;9776;50.798;6.430;2023-10-08T12:41:12;7.18;;;3.45;;
19285;SDS011;9776;50.798;6.430;2023-10-08T12:43:39;9.63;;;3.50;;
19285;SDS011;9776;50.798;6.430;2023-10-08T12:46:11;6.90;;;3.13;;
19285;SDS011;9776;50.798;6.430;2023-10-08T12:48:44;9.65;;;3.08;;
19285;SDS011;9776;50.798;6.430;2023-10-08T12:51:16;7.95;;;3.22;;
19285;SDS011;9776;50.798;6.430;2023-10-08T12:53:44;5.90;;;3.22;;
19285;SDS011;9776;50.798;6.430;2023-10-08T12:56:23;7.55;;;4.22;;
19285;SDS011;9776;50.798;6.430;2023-10-08T12:58:56;6.90;;;3.55;;
19285;SDS011;9776;50.798;6.430;2023-10-08T13:01:24;6.63;;;3.60;;
19285;SDS011;9776;50.798;6.430;2023-10-08T13:03:53;12.50;;;4.35;;
19285;SDS011;9776;50.798;6.430;2023-10-08T13:06:25;7.63;;;3.60;;
19285;SDS011;9776;50.798;6.430;2023-10-08T13:08:55;7.70;;;3.47;;
19285;SDS011;9776;50.798;6.430;2023-10-08T13:11:23;8.70;;;3.47;;
19285;SDS011;9776;50.798;6.430;2023-10-08T13:13:51;8.30;;;3.25;;
19285;SDS011;9776;50.798;6.430;2023-10-08T13:16:19;7.20;;;3.80;;
19285;SDS011;9776;50.798;6.430;2023-10-08T13:18:47;7.93;;;3.58;;
19285;SDS011;9776;50.798;6.430;2023-10-08T13:21:14;9.43;;;3.55;;
19285;SDS011;9776;50.798;6.430;2023-10-08T13:23:40;7.85;;;3.05;;
19285;SDS011;9776;50.798;6.430;2023-10-08T13:26:08;8.48;;;3.72;;
19285;SDS011;9776;50.798;6.430;2023-10-08T13:28:42;8.40;;;4.05;;
19285;SDS011;9776;50.798;6.430;2023-10-08T13:31:10;8.75;;;3.67;;
19285;SDS011;9776;50.798;6.430;2023-10-08T13:33:37;6.65;;;3.35;;
19285;SDS011;9776;50.798;6.430;2023-10-08T13:36:05;8.00;;;3.17;;
19285;SDS011;9776;50.798;6.430;2023-10-08T13:38:34;10.70;;;3.78;;
19285;SDS011;9776;50.798;6.430;2023-10-08T13:41:01;7.70;;;3.90;;
19285;SDS011;9776;50.798;6.430;2023-10-08T13:43:30;7.47;;;3.47;;
19285;SDS011;9776;50.798;6.430;2023-10-08T13:46:01;10.55;;;3.58;;
19285;SDS011;9776;50.798;6.430;2023-10-08T13:48:30;9.20;;;3.40;;
19285;SDS011;9776;50.798;6.430;2023-10-08T13:50:59;10.55;;;3.50;;
19285;SDS011;9776;50.798;6.430;2023-10-08T13:53:26;8.80;;;3.45;;
19285;SDS011;9776;50.798;6.430;2023-10-08T13:55:55;8.85;;;3.40;;
19285;SDS011;9776;50.798;6.430;2023-10-08T13:58:23;10.55;;;3.58;;
19285;SDS011;9776;50.798;6.430;2023-10-08T14:00:51;10.43;;;3.70;;
19285;SDS011;9776;50.798;6.430;2023-10-08T14:03:18;8.65;;;3.58;;
19285;SDS011;9776;50.798;6.430;2023-10-08T14:05:47;6.43;;;3.58;;
19285;SDS011;9776;50.798;6.430;2023-10-08T14:08:15;9.88;;;3.85;;
19285;SDS011;9776;50.798;6.430;2023-10-08T14:10:43;7.88;;;3.63;;
19285;SDS011;9776;50.798;6.430;2023-10-08T14:13:10;8.63;;;3.50;;
19285;SDS011;9776;50.798;6.430;2023-10-08T14:15:36;7.35;;;3.67;;
19285;SDS011;9776;50.798;6.430;2023-10-08T14:18:10;9.48;;;3.53;;
19285;SDS011;9776;50.798;6.430;2023-10-08T14:20:41;8.90;;;3.60;;
19285;SDS011;9776;50.798;6.430;2023-10-08T14:23:11;8.68;;;3.63;;
19285;SDS011;9776;50.798;6.430;2023-10-08T14:25:41;8.02;;;3.47;;
19285;SDS011;9776;50.798;6.430;2023-10-08T14:28:10;9.43;;;3.83;;
19285;SDS011;9776;50.798;6.430;2023-10-08T14:30:46;10.32;;;3.85;;
19285;SDS011;9776;50.798;6.430;2023-10-08T14:33:19;8.75;;;3.70;;
19285;SDS011;9776;50.798;6.430;2023-10-08T14:35:52;10.10;;;3.55;;
19285;SDS011;9776;50.798;6.430;2023-10-08T14:38:36;8.10;;;3.67;;
19285;SDS011;9776;50.798;6.430;2023-10-08T14:41:21;7.82;;;3.17;;
19285;SDS011;9776;50.798;6.430;2023-10-08T14:44:05;9.60;;;3.65;;
19285;SDS011;9776;50.798;6.430;2023-10-08T14:46:32;10.10;;;3.67;;
19285;SDS011;9776;50.798;6.430;2023-10-08T14:49:03;10.13;;;4.18;;
19285;SDS011;9776;50.798;6.430;2023-10-08T14:51:35;7.45;;;3.30;;
19285;SDS011;9776;50.798;6.430;2023-10-08T14:54:05;9.55;;;3.63;;
19285;SDS011;9776;50.798;6.430;2023-10-08T14:56:33;8.40;;;3.70;;
19285;SDS011;9776;50.798;6.430;2023-10-08T14:59:00;11.10;;;4.00;;
19285;SDS011;9776;50.798;6.430;2023-10-08T15:01:27;11.95;;;3.70;;
19285;SDS011;9776;50.798;6.430;2023-10-08T15:03:54;12.10;;;4.07;;
19285;SDS011;9776;50.798;6.430;2023-10-08T15:06:22;9.15;;;3.80;;
19285;SDS011;9776;50.798;6.430;2023-10-08T15:08:49;11.20;;;3.72;;
19285;SDS011;9776;50.798;6.430;2023-10-08T15:11:17;9.45;;;3.67;;
19285;SDS011;9776;50.798;6.430;2023-10-08T15:13:44;13.68;;;4.00;;
19285;SDS011;9776;50.798;6.430;2023-10-08T15:16:11;9.63;;;4.50;;
19285;SDS011;9776;50.798;6.430;2023-10-08T15:18:38;10.40;;;4.05;;
19285;SDS011;9776;50.798;6.430;2023-10-08T15:21:07;11.73;;;3.97;;
19285;SDS011;9776;50.798;6.430;2023-10-08T15:23:35;11.50;;;4.10;;